Time;durP1;ratioP1;P1;durP2;ratioP2;P2;SDS_P1;SDS_P2;PMS_P1;PMS_P2;Temp;Humidity;BMP_temperature;BMP_pressure;BME280_temperature;BME280_humidity;BME280_pressure;Samples;Min_cycle;Max_cycle;Signal;HPM_P1;HPM_P2
2022/07/06 00:01:27;;;;;;;4.78;3.28;;;;;;;10.84;83.01;102569.34;6306840;22;20010;-77
2022/07/06 00:03:53;;;;;;;5.18;2.50;;;;;;;10.84;83.00;102571.09;6306392;22;20336;-75
2022/07/06 00:06:18;;;;;;;7.07;2.92;;;;;;;10.75;83.00;102563.66;6306828;22;20086;-75
2022/07/06 00:08:44;;;;;;;7.63;3.10;;;;;;;10.65;83.21;102551.97;6307044;22;20049;-75
2022/07/06 00:11:10;;;;;;;8.25;3.40;;;;;;;10.55;83.54;102549.72;6307195;22;20337;-77
2022/07/06 00:13:35;;;;;;;6.18;3.10;;;;;;;10.48;83.88;102534.50;6306971;22;20065;-77
2022/07/06 00:16:01;;;;;;;7.45;3.33;;;;;;;10.49;84.25;102543.91;6307119;22;20425;-75
2022/07/06 00:18:26;;;;;;;5.18;2.97;;;;;;;10.67;84.51;102579.44;6306462;22;20003;-77
2022/07/06 00:20:52;;;;;;;6.40;3.00;;;;;;;10.59;84.47;102571.94;6306920;22;20442;-82
2022/07/06 00:23:17;;;;;;;7.85;3.22;;;;;;;10.63;84.39;102575.28;6306376;22;20460;-76
2022/07/06 00:25:42;;;;;;;6.75;2.83;;;;;;;10.59;84.02;102579.69;6306904;22;20007;-82
2022/07/06 00:28:08;;;;;;;6.10;2.90;;;;;;;10.45;84.46;102563.00;6306703;22;20441;-84
2022/07/06 00:30:33;;;;;;;6.50;3.03;;;;;;;10.51;84.95;102581.69;6306751;22;20027;-76
2022/07/06 00:32:58;;;;;;;5.65;2.90;;;;;;;10.49;85.17;102586.09;6306433;22;20003;-76
2022/07/06 00:35:25;;;;;;;9.20;3.38;;;;;;;10.47;85.32;102585.31;6278402;22;20014;-75
2022/07/06 00:37:50;;;;;;;6.80;2.85;;;;;;;10.44;85.49;102584.56;6306198;22;20004;-75
2022/07/06 00:40:16;;;;;;;6.72;3.25;;;;;;;10.35;85.79;102572.81;6306824;22;20009;-75
2022/07/06 00:42:43;;;;;;;7.20;3.05;;;;;;;10.30;85.90;102572.13;6307069;22;19999;-76
2022/07/06 00:45:10;;;;;;;5.57;3.00;;;;;;;10.39;86.23;102584.72;6306521;22;19999;-75
2022/07/06 00:47:35;;;;;;;7.85;3.08;;;;;;;10.24;85.84;102551.69;6306617;22;20455;-75
2022/07/06 00:52:47;;;;;;;10.32;3.20;;;;;;;10.15;86.08;102560.56;6306288;22;20060;-83
2022/07/06 00:55:13;;;;;;;7.07;3.45;;;;;;;10.26;85.91;102581.72;6306887;22;20097;-75
2022/07/06 00:57:40;;;;;;;8.15;3.28;;;;;;;10.18;86.06;102563.00;6306898;22;20007;-76
2022/07/06 01:00:08;;;;;;;7.75;3.67;;;;;;;10.22;86.03;102579.28;6306109;22;19999;-75
2022/07/06 01:02:35;;;;;;;6.50;3.70;;;;;;;9.95;86.59;102531.97;6306395;22;20050;-75
2022/07/06 01:05:01;;;;;;;6.80;3.78;;;;;;;10.20;86.51;102574.13;6306225;22;20068;-83
2022/07/06 01:07:27;;;;;;;8.10;3.88;;;;;;;10.21;86.64;102568.06;6306644;22;20003;-76
2022/07/06 01:09:53;;;;;;;7.03;3.78;;;;;;;10.17;87.02;102582.00;6306790;22;20196;-78
2022/07/06 01:12:18;;;;;;;8.45;3.88;;;;;;;9.95;87.29;102535.41;6306910;22;20003;-79
2022/07/06 01:14:44;;;;;;;6.85;4.03;;;;;;;9.93;87.79;102541.47;6306917;22;20325;-82
2022/07/06 01:17:10;;;;;;;8.27;3.88;;;;;;;10.14;87.54;102578.69;6306733;22;20014;-80
2022/07/06 01:19:36;;;;;;;7.65;4.07;;;;;;;10.11;87.52;102571.84;6306844;22;20003;-77
2022/07/06 01:22:01;;;;;;;8.27;4.10;;;;;;;10.14;87.78;102578.69;6306387;22;20031;-81
2022/07/06 01:24:27;;;;;;;8.35;3.90;;;;;;;10.11;87.91;102571.00;6278550;22;20420;-80
2022/07/06 01:26:52;;;;;;;8.82;3.70;;;;;;;10.11;87.77;102571.84;6307571;22;20011;-78
2022/07/06 01:29:18;;;;;;;8.13;4.20;;;;;;;10.09;88.03;102580.56;6308115;22;20074;-82
2022/07/06 01:31:50;;;;;;;8.70;4.50;;;;;;;10.04;88.70;102570.38;6308887;22;20007;-84
2022/07/06 01:34:19;;;;;;;10.48;4.55;;;;;;;10.09;89.10;102567.66;6308792;22;20082;-82
2022/07/06 01:36:45;;;;;;;8.35;4.80;;;;;;;10.04;88.85;102560.06;6308576;22;20048;-77
2022/07/06 01:39:10;;;;;;;7.35;3.97;;;;;;;9.91;88.63;102540.69;6308440;22;20007;-76
2022/07/06 01:41:36;;;;;;;7.53;4.25;;;;;;;9.85;88.24;102534.03;6308523;22;20014;-76
2022/07/06 01:44:02;;;;;;;9.15;4.15;;;;;;;9.96;88.35;102555.16;6308325;22;20026;-80
2022/07/06 01:46:27;;;;;;;9.82;5.03;;;;;;;9.90;88.75;102555.34;6308561;22;20007;-77
2022/07/06 01:48:53;;;;;;;6.93;4.38;;;;;;;9.86;88.60;102552.91;6308481;22;20091;-82
2022/07/06 01:51:18;;;;;;;7.00;4.68;;;;;;;9.90;88.90;102575.97;6308227;22;20136;-79
2022/07/06 01:53:44;;;;;;;7.60;4.43;;;;;;;9.88;89.00;102571.78;6308062;22;20003;-81
2022/07/06 01:56:10;;;;;;;8.07;5.15;;;;;;;9.89;89.06;102573.44;6307916;22;20437;-81
2022/07/06 01:58:35;;;;;;;8.50;5.28;;;;;;;9.87;89.08;102576.09;6308167;22;20030;-80
2022/07/06 02:01:06;;;;;;;6.95;4.65;;;;;;;9.74;89.21;102565.31;6308368;22;20065;-77
2022/07/06 02:03:31;;;;;;;7.97;4.93;;;;;;;9.77;89.61;102572.97;6307880;22;20070;-78
2022/07/06 02:05:56;;;;;;;8.90;4.80;;;;;;;9.78;89.61;102569.47;6308210;22;20012;-80
2022/07/06 02:08:22;;;;;;;10.95;5.10;;;;;;;9.68;89.66;102556.94;6308222;22;20367;-82
2022/07/06 02:10:47;;;;;;;10.48;5.28;;;;;;;9.69;89.62;102568.94;6307958;22;20003;-77
2022/07/06 02:13:12;;;;;;;8.20;5.00;;;;;;;9.72;89.95;102579.16;6308358;22;20013;-78
2022/07/06 02:15:37;;;;;;;9.75;5.10;;;;;;;9.60;89.71;102557.16;6308268;22;20003;-76
2022/07/06 02:18:03;;;;;;;8.10;5.53;;;;;;;9.70;89.99;102578.34;6280633;22;19995;-73
2022/07/06 02:20:28;;;;;;;10.45;5.63;;;;;;;9.65;90.12;102580.25;6308178;22;19999;-85
2022/07/06 02:22:53;;;;;;;14.48;5.53;;;;;;;9.65;90.50;102581.09;6307731;22;20259;-81
2022/07/06 02:25:19;;;;;;;7.53;5.10;;;;;;;9.59;90.42;102585.59;6307458;22;20026;-81
2022/07/06 02:27:44;;;;;;;10.15;5.57;;;;;;;9.60;90.57;102580.38;6307936;22;19999;-79
2022/07/06 02:30:10;;;;;;;12.73;6.22;;;;;;;9.44;90.84;102555.97;6307802;22;20117;-84
2022/07/06 02:32:35;;;;;;;10.48;5.50;;;;;;;9.37;90.87;102544.97;6307875;22;19999;-83
2022/07/06 02:35:00;;;;;;;9.98;5.50;;;;;;;9.56;90.89;102572.78;6280253;22;20007;-84
2022/07/06 02:37:26;;;;;;;11.70;5.45;;;;;;;9.54;90.65;102570.25;6307520;22;20311;-79
2022/07/06 02:39:51;;;;;;;9.95;5.82;;;;;;;9.54;91.23;102571.97;6307497;22;20003;-79
2022/07/06 02:42:16;;;;;;;16.02;5.88;;;;;;;9.55;91.16;102565.94;6308174;22;20050;-78
2022/07/06 02:44:42;;;;;;;9.52;6.05;;;;;;;9.48;90.91;102571.28;6307934;22;20014;-78
2022/07/06 02:47:07;;;;;;;10.65;6.47;;;;;;;9.47;91.22;102574.75;6307393;22;20021;-84
2022/07/06 02:49:32;;;;;;;11.35;5.80;;;;;;;9.46;91.55;102573.06;6307815;22;20014;-81
2022/07/06 02:51:58;;;;;;;10.35;6.13;;;;;;;9.26;91.58;102538.47;6307276;22;20003;-77
2022/07/06 02:54:23;;;;;;;11.77;6.40;;;;;;;9.45;91.92;102573.97;6307256;22;20405;-80
2022/07/06 02:56:52;;;;;;;11.68;6.53;;;;;;;9.43;92.11;102578.31;6307581;22;20071;-78
2022/07/06 02:59:17;;;;;;;11.23;6.72;;;;;;;9.42;92.17;102576.63;6279628;22;20083;-77
2022/07/06 03:01:43;;;;;;;11.30;6.38;;;;;;;9.33;92.00;102569.16;6307243;22;20087;-86
2022/07/06 03:04:08;;;;;;;10.77;6.30;;;;;;;9.41;92.02;102574.09;6307522;22;20015;-80
2022/07/06 03:06:33;;;;;;;10.68;6.70;;;;;;;9.38;92.33;102575.03;6307378;22;20029;-79
2022/07/06 03:08:59;;;;;;;14.18;7.72;;;;;;;9.42;92.52;102580.94;6307491;22;20321;-84
2022/07/06 03:11:24;;;;;;;12.57;7.45;;;;;;;9.45;92.45;102592.00;6307479;22;20003;-77
2022/07/06 03:13:49;;;;;;;8.63;5.93;;;;;;;9.43;92.51;102587.78;6307461;22;20373;-76
2022/07/06 03:16:15;;;;;;;13.27;6.90;;;;;;;9.38;92.17;102582.75;6307565;22;20412;-77
2022/07/06 03:18:40;;;;;;;12.13;6.40;;;;;;;9.41;92.38;102585.25;6307626;22;19999;-86
2022/07/06 03:21:05;;;;;;;13.57;7.20;;;;;;;9.37;92.17;102588.81;6307686;22;20049;-85
2022/07/06 03:23:31;;;;;;;10.20;6.70;;;;;;;9.38;92.56;102584.50;6307602;22;20424;-78
2022/07/06 03:25:56;;;;;;;11.68;6.90;;;;;;;9.40;92.32;102591.28;6307228;22;20039;-87
2022/07/06 03:28:22;;;;;;;10.55;6.70;;;;;;;9.41;92.37;102584.41;6307281;22;20003;-77
2022/07/06 03:30:47;;;;;;;11.70;7.13;;;;;;;9.14;92.39;102535.38;6306983;22;20421;-78
2022/07/06 03:33:12;;;;;;;14.13;7.22;;;;;;;9.38;92.30;102587.09;6307329;22;20496;-82
2022/07/06 03:35:37;;;;;;;11.43;7.25;;;;;;;9.39;92.44;102583.59;6307192;22;20034;-77
2022/07/06 03:38:03;;;;;;;10.65;7.13;;;;;;;9.37;92.57;102587.97;6307095;22;20030;-79
2022/07/06 03:40:28;;;;;;;10.75;7.10;;;;;;;9.39;92.36;102583.59;6307387;22;20003;-77
2022/07/06 03:42:53;;;;;;;11.05;6.90;;;;;;;9.42;92.70;102588.66;6307398;22;20007;-77
2022/07/06 03:45:19;;;;;;;12.13;7.05;;;;;;;9.07;92.46;102527.88;6307363;22;20007;-76
2022/07/06 03:47:44;;;;;;;11.65;7.55;;;;;;;9.47;92.22;102585.06;6307135;22;20387;-76
2022/07/06 03:50:09;;;;;;;11.50;7.30;;;;;;;9.49;92.41;102579.84;6307228;22;20050;-76
2022/07/06 03:52:35;;;;;;;11.30;7.07;;;;;;;9.36;92.18;102560.50;6306895;22;20049;-83
2022/07/06 03:55:00;;;;;;;12.45;7.40;;;;;;;9.40;92.01;102569.81;6306774;22;20524;-76
2022/07/06 03:57:26;;;;;;;11.27;7.72;;;;;;;9.51;91.92;102587.53;6307217;22;20003;-76
2022/07/06 03:59:51;;;;;;;12.05;7.68;;;;;;;9.53;92.15;102585.75;6307220;22;20317;-86
2022/07/06 04:02:17;;;;;;;12.20;7.22;;;;;;;9.56;91.96;102590.84;6307304;22;20480;-84
2022/07/06 04:04:42;;;;;;;12.80;7.38;;;;;;;9.57;92.22;102583.06;6306821;22;20015;-83
2022/07/06 04:07:07;;;;;;;12.10;7.47;;;;;;;9.59;92.09;102576.09;6306829;22;20038;-86
2022/07/06 04:09:33;;;;;;;13.52;8.25;;;;;;;9.63;92.29;102577.69;6278885;22;20117;-79
2022/07/06 04:11:58;;;;;;;12.38;7.82;;;;;;;9.63;92.06;102569.09;6306969;22;19995;-86
2022/07/06 04:14:23;;;;;;;10.40;6.95;;;;;;;9.70;91.86;102575.78;6307065;22;19999;-84
2022/07/06 04:16:48;;;;;;;12.20;7.70;;;;;;;9.69;91.79;102574.94;6307076;22;19999;-82
2022/07/06 04:19:14;;;;;;;12.73;8.07;;;;;;;9.68;91.56;102577.56;6307005;22;20302;-76
2022/07/06 04:21:40;;;;;;;13.38;7.97;;;;;;;9.50;91.51;102550.59;6279055;22;20007;-84
2022/07/06 04:24:05;;;;;;;14.50;8.43;;;;;;;9.62;92.10;102572.59;6306708;22;20332;-76
2022/07/06 04:26:31;;;;;;;12.60;8.23;;;;;;;9.46;91.88;102547.28;6306444;22;20014;-76
2022/07/06 04:28:56;;;;;;;11.25;7.18;;;;;;;9.43;91.84;102536.19;6307117;22;20038;-75
2022/07/06 04:31:22;;;;;;;10.98;7.72;;;;;;;9.70;91.99;102568.03;6306592;22;19999;-76
2022/07/06 04:33:47;;;;;;;11.55;7.40;;;;;;;9.72;91.60;102571.41;6306948;22;20096;-76
2022/07/06 04:36:12;;;;;;;14.20;8.15;;;;;;;9.75;91.62;102568.75;6306705;22;20038;-76
2022/07/06 04:38:38;;;;;;;9.95;7.13;;;;;;;9.79;91.59;102575.50;6279379;22;20003;-77
2022/07/06 04:41:03;;;;;;;10.30;7.30;;;;;;;9.70;91.50;102549.97;6306368;22;20000;-84
2022/07/06 04:43:29;;;;;;;13.35;7.20;;;;;;;9.91;91.28;102574.25;6279329;22;20064;-79
2022/07/06 04:45:54;;;;;;;12.50;7.20;;;;;;;10.01;91.48;102570.47;6306638;22;20015;-75
2022/07/06 04:48:19;;;;;;;11.30;7.32;;;;;;;10.12;90.98;102577.84;6306829;22;20030;-76
2022/07/06 04:50:45;;;;;;;11.13;6.70;;;;;;;10.04;90.36;102544.59;6307044;22;20014;-76
2022/07/06 04:53:10;;;;;;;11.52;6.55;;;;;;;10.24;89.78;102537.03;6306714;22;20333;-76
2022/07/06 04:55:35;;;;;;;10.77;7.10;;;;;;;10.32;88.68;102522.13;6306525;22;20007;-76
2022/07/06 04:58:01;;;;;;;10.65;7.00;;;;;;;10.53;88.55;102530.84;6306421;22;20766;-76
2022/07/06 05:00:26;;;;;;;13.18;7.65;;;;;;;10.92;88.58;102574.25;6306629;22;20448;-77
2022/07/06 05:02:52;;;;;;;12.43;7.03;;;;;;;10.75;88.38;102527.50;6308261;22;20068;-77
2022/07/06 05:05:17;;;;;;;10.00;6.55;;;;;;;11.22;88.26;102568.84;6308480;22;20344;-77
2022/07/06 05:07:43;;;;;;;10.05;6.75;;;;;;;11.28;86.22;102566.84;6309029;22;20022;-75
2022/07/06 05:10:10;;;;;;;11.30;7.15;;;;;;;11.58;86.65;102576.91;6308878;22;19999;-77
2022/07/06 05:12:35;;;;;;;12.90;7.32;;;;;;;11.76;85.80;102581.34;6308307;22;20428;-77
2022/07/06 05:15:01;;;;;;;10.07;7.15;;;;;;;11.91;84.20;102579.94;6308933;22;20003;-80
2022/07/06 05:17:26;;;;;;;13.52;7.15;;;;;;;12.09;83.49;102586.94;6309062;22;20003;-77
2022/07/06 05:19:52;;;;;;;12.02;7.72;;;;;;;12.51;84.42;102545.44;6309128;22;20007;-78
2022/07/06 05:22:17;;;;;;;10.85;6.03;;;;;;;13.62;78.71;102554.22;6280532;22;20006;-77
2022/07/06 05:24:43;;;;;;;11.35;5.97;;;;;;;15.69;71.83;102566.72;6308504;22;20026;-78
2022/07/06 05:27:08;;;;;;;11.50;5.40;;;;;;;17.99;63.49;102584.75;6308196;22;20064;-79
2022/07/06 05:29:33;;;;;;;11.23;5.03;;;;;;;18.74;57.90;102584.94;6308855;22;19999;-77
2022/07/06 05:32:17;;;;;;;6.60;4.47;;;;;;;17.80;61.97;102587.78;6307853;22;20033;-77
2022/07/06 05:34:43;;;;;;;9.13;4.70;;;;;;;16.98;62.69;102574.72;6308757;22;20003;-78
2022/07/06 05:37:08;;;;;;;6.63;4.40;;;;;;;17.54;59.95;102474.50;6308680;22;20320;-79
2022/07/06 05:39:37;;;;;;;7.30;4.53;;;;;;;19.40;55.44;102584.53;6308487;22;20029;-78
2022/07/06 05:42:02;;;;;;;8.60;4.40;;;;;;;19.54;54.72;102585.31;6308003;22;20413;-78
2022/07/06 05:44:27;;;;;;;6.55;4.22;;;;;;;19.52;53.31;102563.63;6308257;22;20052;-78
2022/07/06 05:50:11;;;;;;;6.35;3.72;;;;;;;20.31;53.83;102589.16;6280290;22;20022;-78
2022/07/06 05:52:22;;;;;;;7.55;4.05;;;;;;;21.34;48.49;102577.59;6308233;22;20443;-83
2022/07/06 05:54:47;;;;;;;5.72;3.50;;;;;;;20.38;50.90;102594.78;6308386;22;19999;-80
2022/07/06 05:57:12;;;;;;;7.80;3.63;;;;;;;19.60;53.70;102590.16;6308042;22;20492;-78
2022/07/06 05:59:38;;;;;;;5.60;3.40;;;;;;;19.10;53.78;102595.44;6308605;22;20007;-80
2022/07/06 06:02:03;;;;;;;5.97;3.65;;;;;;;18.58;56.09;102578.13;6280085;22;20003;-78
2022/07/06 06:04:28;;;;;;;6.28;3.35;;;;;;;18.55;56.83;102604.47;6306864;22;20000;-79
2022/07/06 06:06:54;;;;;;;7.35;3.38;;;;;;;18.68;57.42;102601.03;6308302;22;20007;-75
2022/07/06 06:09:19;;;;;;;6.60;3.50;;;;;;;18.97;55.67;102584.13;6308169;22;19999;-76
2022/07/06 06:11:45;;;;;;;5.10;3.40;;;;;;;19.56;55.43;102597.38;6307760;22;20052;-74
2022/07/06 06:14:10;;;;;;;5.80;3.47;;;;;;;20.25;54.75;102592.25;6307798;22;20011;-75
2022/07/06 06:16:36;;;;;;;6.35;2.97;;;;;;;21.61;51.21;102571.84;6307597;22;20006;-77
2022/07/06 06:19:02;;;;;;;5.68;2.95;;;;;;;21.55;50.02;102568.91;6307913;22;20413;-74
2022/07/06 06:21:27;;;;;;;6.53;2.42;;;;;;;21.22;49.87;102599.53;6307999;22;20003;-82
2022/07/06 08:37:15;;;;;;;8.13;0.88;;;;;;;20.21;51.33;102541.81;4914175;23;28867635;-82
2022/07/06 08:40:14;;;;;;;3.08;0.68;;;;;;;20.61;49.63;102584.22;6134877;23;20018;-88
2022/07/06 08:43:10;;;;;;;3.78;0.98;;;;;;;20.49;49.43;102593.03;6134790;23;20145;-85
2022/07/06 08:45:37;;;;;;;4.90;1.20;;;;;;;19.78;48.25;102462.97;6108793;23;20109;-83
2022/07/06 08:48:24;;;;;;;2.92;0.90;;;;;;;19.84;47.93;102445.91;6134533;23;20002;-81
2022/07/06 09:12:36;;;;;;;1.38;0.60;;;;;;;20.87;45.86;102579.56;6189391;23;20020;-82
2022/07/06 09:15:01;;;;;;;2.58;0.70;;;;;;;20.40;44.99;102509.75;6193091;23;20013;-79
2022/07/06 09:17:29;;;;;;;2.75;0.85;;;;;;;20.76;45.38;102566.44;6193793;23;20005;-80
2022/07/06 09:20:14;;;;;;;2.42;0.70;;;;;;;20.71;44.16;102528.34;6193139;23;20031;-80
2022/07/06 09:22:40;;;;;;;2.83;0.75;;;;;;;21.26;44.99;102581.75;6191752;23;20005;-81
2022/07/06 09:25:08;;;;;;;3.00;0.73;;;;;;;21.41;45.34;102580.53;6186683;23;20043;-80
2022/07/06 09:27:39;;;;;;;1.58;0.75;;;;;;;21.54;44.74;102577.75;6186754;23;20001;-81
2022/07/06 09:51:06;;;;;;;2.20;0.73;;;;;;;21.30;43.76;102439.50;6171118;22;20467;-81
2022/07/06 09:56:57;;;;;;;;;;;;;;;22.32;39.81;102593.16;6157070;23;20371;-82
2022/07/06 10:04:57;;;;;;;3.17;0.70;;;;;;;22.24;43.05;102598.22;6189195;23;20458;-80
2022/07/06 10:16:53;;;;;;;2.78;0.60;;;;;;;22.46;42.29;102590.16;6155708;23;20084;-82
2022/07/06 10:22:08;;;;;;;4.50;0.65;;;;;;;21.68;41.80;102453.84;6155915;23;20047;-82
2022/07/06 11:37:30;;;;;;;3.20;0.63;;;;;;;21.68;39.98;102573.00;6154511;23;20388;-91
2022/07/06 11:39:55;;;;;;;4.47;0.80;;;;;;;21.37;41.77;102534.44;6194185;23;20009;-93
2022/07/06 11:42:20;;;;;;;1.42;0.63;;;;;;;21.56;38.81;102565.31;6196175;23;20009;-79
2022/07/06 11:44:46;;;;;;;3.30;0.68;;;;;;;21.45;41.77;102537.28;6188572;23;20075;-77
2022/07/06 11:47:12;;;;;;;1.35;0.70;;;;;;;21.54;41.25;102546.22;6185078;23;20016;-82
2022/07/06 11:49:40;;;;;;;3.72;0.75;;;;;;;21.34;39.37;102525.03;6184981;23;20032;-80
2022/07/06 11:52:11;;;;;;;2.88;0.70;;;;;;;21.61;44.24;102550.81;6184213;23;20009;-75
2022/07/06 11:54:37;;;;;;;1.85;0.60;;;;;;;21.63;40.27;102542.78;6185531;23;20012;-79
2022/07/06 11:57:03;;;;;;;3.22;0.68;;;;;;;21.71;41.42;102546.47;6185185;23;20059;-76
2022/07/06 11:59:34;;;;;;;3.05;0.80;;;;;;;21.44;40.59;102539.06;6184508;23;20040;-75
2022/07/06 12:02:07;;;;;;;1.75;0.60;;;;;;;21.34;41.89;102537.34;6185072;23;20028;-76
2022/07/06 12:04:35;;;;;;;2.05;0.43;;;;;;;21.48;41.92;102537.03;6184983;23;20039;-78
2022/07/06 12:07:02;;;;;;;2.83;0.60;;;;;;;21.54;41.87;102538.31;6185046;23;20039;-80
2022/07/06 12:09:37;;;;;;;5.07;0.80;;;;;;;21.62;43.03;102530.59;6184641;23;20005;-75
2022/07/06 12:12:03;;;;;;;2.40;0.70;;;;;;;21.57;45.54;102515.22;6184490;23;20179;-79
2022/07/06 12:14:34;;;;;;;1.17;0.60;;;;;;;21.80;41.98;102523.81;6185239;23;20008;-79
2022/07/06 12:17:05;;;;;;;5.22;0.90;;;;;;;21.85;41.39;102508.50;6185152;23;20008;-78
2022/07/06 12:19:30;;;;;;;2.13;0.85;;;;;;;21.99;41.22;102504.69;6185139;23;20071;-80
2022/07/06 12:21:56;;;;;;;2.80;0.68;;;;;;;22.13;41.65;102520.19;6184967;23;20430;-79
2022/07/06 12:24:24;;;;;;;3.03;0.98;;;;;;;22.05;40.11;102520.81;6184885;23;20009;-78
2022/07/06 12:26:51;;;;;;;4.22;0.80;;;;;;;22.08;40.65;102524.16;6183274;23;19997;-75
2022/07/06 12:29:17;;;;;;;2.00;0.80;;;;;;;21.90;40.42;102508.94;6184874;23;20001;-78
2022/07/06 12:31:52;;;;;;;2.78;0.80;;;;;;;21.89;41.33;102519.59;6184854;23;20044;-79
2022/07/06 12:34:23;;;;;;;2.72;0.60;;;;;;;21.84;41.60;102513.91;6184640;23;20060;-79
2022/07/06 12:36:49;;;;;;;2.17;0.50;;;;;;;21.73;40.47;102513.00;6185125;23;20340;-78
2022/07/06 12:39:16;;;;;;;1.92;0.80;;;;;;;21.63;41.47;102483.19;6184218;23;20032;-80
2022/07/06 12:41:49;;;;;;;1.50;0.70;;;;;;;21.87;42.11;102514.47;6184641;23;20042;-77
2022/07/06 12:44:17;;;;;;;3.10;0.85;;;;;;;21.71;41.13;102496.50;6184685;23;20020;-77
2022/07/06 12:46:42;;;;;;;2.63;0.70;;;;;;;21.83;42.42;102510.44;6184777;23;20009;-81
2022/07/06 12:49:19;;;;;;;1.42;0.70;;;;;;;21.83;41.14;102504.31;6158700;23;20403;-82
2022/07/06 12:52:01;;;;;;;2.03;0.80;;;;;;;22.01;42.06;102511.47;6184643;23;20079;-77
2022/07/06 12:54:33;;;;;;;1.10;0.63;;;;;;;21.81;38.79;102491.28;6158252;23;20072;-78
2022/07/06 12:57:12;;;;;;;3.08;0.70;;;;;;;21.86;41.87;102483.88;6184985;23;20009;-78
2022/07/06 13:00:07;;;;;;;4.75;0.90;;;;;;;21.79;40.58;102477.44;6186331;23;20422;-79
2022/07/06 13:02:36;;;;;;;1.40;0.50;;;;;;;21.74;40.55;102495.44;6066426;23;21051;-82
2022/07/06 13:05:12;;;;;;;1.90;0.68;;;;;;;21.60;39.86;102503.63;6066783;23;20011;-75
2022/07/06 13:07:43;;;;;;;2.03;0.70;;;;;;;21.43;42.22;102479.59;6066689;23;20029;-78
2022/07/06 13:10:10;;;;;;;2.78;0.63;;;;;;;21.42;40.47;102500.72;6066431;23;20003;-82
2022/07/06 13:12:37;;;;;;;4.35;0.68;;;;;;;21.60;39.84;102496.56;6066319;23;20086;-76
2022/07/06 13:15:03;;;;;;;3.42;0.80;;;;;;;21.66;42.33;102474.19;6066464;23;20419;-76
2022/07/06 13:17:29;;;;;;;1.38;0.70;;;;;;;21.91;40.73;102492.19;6066335;23;20421;-80
2022/07/06 13:19:54;;;;;;;1.98;0.77;;;;;;;21.62;40.06;102435.97;6066475;23;20018;-76
2022/07/06 13:22:20;;;;;;;1.67;0.68;;;;;;;22.03;39.95;102498.22;6066715;23;20025;-80
2022/07/06 13:24:45;;;;;;;2.75;0.80;;;;;;;22.00;39.73;102501.94;6066347;23;20011;-81
2022/07/06 13:27:11;;;;;;;3.35;0.70;;;;;;;21.91;38.08;102493.97;6066513;23;20528;-80
2022/07/06 13:29:36;;;;;;;2.78;1.00;;;;;;;22.21;39.11;102475.59;6066414;23;20466;-79
2022/07/06 13:32:03;;;;;;;4.93;1.10;;;;;;;22.71;37.32;102494.03;6042126;23;20018;-79
2022/07/06 13:34:28;;;;;;;2.20;0.82;;;;;;;22.87;38.32;102467.22;6066370;23;20093;-77
2022/07/06 13:36:54;;;;;;;4.70;0.90;;;;;;;23.16;40.07;102478.59;6066435;23;20099;-80
2022/07/06 13:39:19;;;;;;;3.90;0.75;;;;;;;23.07;40.37;102468.06;6146881;23;20024;-79
2022/07/06 13:41:45;;;;;;;3.42;0.93;;;;;;;23.01;38.87;102476.50;6186552;23;20374;-80
2022/07/06 13:44:11;;;;;;;3.33;0.80;;;;;;;23.07;39.54;102462.78;6186391;23;20080;-75
2022/07/06 13:46:39;;;;;;;3.00;1.05;;;;;;;23.10;37.88;102458.06;6185932;23;20362;-80
2022/07/06 13:49:05;;;;;;;2.95;1.00;;;;;;;23.21;38.60;102465.03;6186143;23;20012;-80
2022/07/06 13:51:32;;;;;;;4.35;1.02;;;;;;;23.29;39.21;102449.31;6186369;23;20009;-78
2022/07/06 13:53:58;;;;;;;4.55;0.82;;;;;;;23.49;36.74;102452.75;6186224;23;20005;-81
2022/07/06 13:56:24;;;;;;;1.52;1.00;;;;;;;23.60;38.08;102428.09;6186050;23;20001;-75
2022/07/06 13:58:50;;;;;;;2.45;0.93;;;;;;;24.00;38.63;102446.28;6185384;23;20005;-80
2022/07/06 14:01:16;;;;;;;3.42;1.10;;;;;;;24.02;37.43;102405.56;6185960;23;20009;-80
2022/07/06 14:03:41;;;;;;;3.35;0.93;;;;;;;24.33;36.55;102436.97;6186120;23;20076;-81
2022/07/06 14:06:07;;;;;;;5.30;1.10;;;;;;;24.75;35.23;102450.44;6186090;23;20032;-82
2022/07/06 14:08:37;;;;;;;4.60;1.10;;;;;;;24.55;34.03;102410.13;6186203;23;20008;-79
2022/07/06 14:11:04;;;;;;;3.90;1.20;;;;;;;24.57;37.57;102442.50;6186030;23;20334;-79
2022/07/06 14:13:30;;;;;;;6.05;1.10;;;;;;;24.53;38.22;102450.88;6186005;23;20001;-81
2022/07/06 14:15:55;;;;;;;3.80;1.10;;;;;;;24.37;35.98;102424.28;6185693;23;20320;-79
2022/07/06 14:18:21;;;;;;;4.97;1.50;;;;;;;24.67;36.91;102444.25;6185965;23;20009;-79
2022/07/06 14:20:50;;;;;;;2.78;1.10;;;;;;;24.70;36.52;102439.53;6185790;23;20056;-81
2022/07/06 14:23:16;;;;;;;3.42;1.42;;;;;;;24.62;35.77;102433.31;6186011;23;20005;-79
2022/07/06 14:25:42;;;;;;;6.03;1.35;;;;;;;24.58;36.33;102425.72;6185687;23;20089;-87
2022/07/06 14:28:08;;;;;;;3.25;1.10;;;;;;;24.49;36.36;102394.06;6185642;23;20080;-84
2022/07/06 14:30:36;;;;;;;3.38;1.42;;;;;;;24.59;34.92;102418.59;6158064;23;20037;-83
2022/07/06 14:33:02;;;;;;;3.35;1.30;;;;;;;24.46;35.65;102411.03;6185598;23;20015;-84
2022/07/06 14:35:28;;;;;;;5.68;1.27;;;;;;;24.23;36.95;102383.38;6159409;23;20005;-84
2022/07/06 14:37:53;;;;;;;3.22;1.40;;;;;;;24.36;37.34;102406.78;6185723;23;20020;-85
2022/07/06 14:40:19;;;;;;;4.50;1.50;;;;;;;24.30;35.50;102416.13;6159086;23;20011;-84
2022/07/06 14:42:44;;;;;;;4.55;1.45;;;;;;;24.42;34.97;102407.03;6185517;23;20008;-83
2022/07/06 14:45:10;;;;;;;3.97;1.42;;;;;;;24.58;35.40;102404.56;6185753;23;20007;-85
2022/07/06 14:47:36;;;;;;;5.00;1.40;;;;;;;24.69;36.50;102402.69;6185978;23;20005;-85
2022/07/06 14:50:05;;;;;;;6.43;1.98;;;;;;;24.47;36.74;102374.88;6185787;23;20009;-87
2022/07/06 14:52:30;;;;;;;4.95;1.63;;;;;;;24.67;36.92;102401.97;6185566;23;20143;-88
2022/07/06 14:54:57;;;;;;;7.88;2.85;;;;;;;24.59;36.68;102395.66;6185109;23;20415;-85
2022/07/06 14:57:22;;;;;;;3.95;1.70;;;;;;;24.29;35.88;102414.47;6185883;23;20023;-82
2022/07/06 14:59:47;;;;;;;9.27;3.03;;;;;;;24.12;38.04;102380.94;6185745;23;20466;-86
2022/07/06 15:02:12;;;;;;;4.32;1.70;;;;;;;24.14;37.57;102400.09;6185709;23;20415;-88
2022/07/06 15:04:38;;;;;;;6.15;1.35;;;;;;;24.29;37.31;102391.53;6185695;23;20001;-86
2022/07/06 15:07:03;;;;;;;6.05;1.60;;;;;;;24.45;35.67;102395.34;6185633;23;20457;-80
2022/07/06 15:09:30;;;;;;;2.83;1.15;;;;;;;24.45;35.59;102388.25;6185475;23;20065;-80
2022/07/06 15:11:56;;;;;;;6.00;1.60;;;;;;;24.48;36.17;102392.38;6184951;23;20008;-77
2022/07/06 15:14:22;;;;;;;5.93;1.80;;;;;;;24.33;35.62;102384.16;6185795;23;20001;-80
2022/07/06 15:16:48;;;;;;;5.10;1.73;;;;;;;24.21;35.91;102372.97;6185353;23;20005;-82
2022/07/06 15:19:13;;;;;;;3.78;1.50;;;;;;;24.19;36.80;102374.09;6185337;23;20366;-85
2022/07/06 15:21:39;;;;;;;5.75;1.80;;;;;;;24.07;36.32;102354.97;6185307;23;20051;-78
2022/07/06 15:24:04;;;;;;;3.05;1.13;;;;;;;24.30;36.71;102387.91;6158493;23;19997;-78
2022/07/06 15:26:31;;;;;;;4.25;1.60;;;;;;;24.03;36.93;102382.63;6184903;23;20009;-85
2022/07/06 15:28:57;;;;;;;4.13;1.45;;;;;;;23.77;36.66;102379.00;6185064;23;20492;-86
2022/07/06 15:31:22;;;;;;;7.13;1.95;;;;;;;23.78;39.22;102385.94;6185207;23;20084;-78
2022/07/06 15:33:47;;;;;;;4.20;1.60;;;;;;;23.70;37.79;102382.25;6185199;23;20016;-77
2022/07/06 15:36:13;;;;;;;5.80;1.70;;;;;;;23.65;37.55;102383.63;6185183;23;20303;-78
2022/07/06 15:38:38;;;;;;;3.50;1.55;;;;;;;23.68;38.92;102380.69;6184490;23;20088;-78
2022/07/06 15:41:03;;;;;;;5.93;1.80;;;;;;;23.66;38.59;102382.66;6184601;23;20001;-76
2022/07/06 15:43:30;;;;;;;5.13;1.58;;;;;;;23.71;39.40;102367.25;6184882;23;20001;-77
2022/07/06 15:45:57;;;;;;;4.00;1.67;;;;;;;23.90;37.44;102383.00;6185314;23;20029;-77
2022/07/06 15:48:24;;;;;;;6.43;1.88;;;;;;;23.81;38.06;102348.75;6185166;23;20028;-88
2022/07/06 15:50:49;;;;;;;4.43;1.92;;;;;;;23.89;38.72;102383.13;6184913;23;20009;-79
2022/07/06 15:53:15;;;;;;;4.97;1.70;;;;;;;23.70;39.36;102365.59;6184936;23;20379;-81
2022/07/06 15:55:42;;;;;;;4.05;1.40;;;;;;;23.44;38.01;102349.53;6184678;23;20008;-83
2022/07/06 15:58:08;;;;;;;5.43;1.70;;;;;;;23.57;37.71;102370.31;6184562;23;20001;-85